Osg Courageous — WDF7122 — position and weather

sailwx.info

Track history (hours):
 
Tides and Currents Weather Stations Pressure Air Temp Water Temp Dewpoint Dewpoint Depression Visibility Wind Speed Wind Dir Waves Ship Positions

Osg Courageous

Owner: OSG Ship Management, Inc, Tampa, FL. More information available from US FCC via Universal Licensing System and Coast Guard Vessel Documentation Center.

Last reported at 2018-Jan-23 08:05 UTC. Time now 2018-Jan-23 23:57 UTC.
Position N 40°48' W 073°54'.

Length 187 m; draft 11 m.

Type: Tanker. MMSI: 367481310.

Date/timePositionNaut miles runAvg speedWind from/ knotsBaromVisibWave heightAir tempDewpointWater temp
2018-Jan-23 08:05N 40°48' W 073°54'0 0.0
2018-Jan-23 07:58N 40°48' W 073°54'0 0.0
2018-Jan-23 07:31N 40°48' W 073°54'0 0.0
2018-Jan-23 07:00N 40°48' W 073°54'1 2.2
2018-Jan-23 06:30N 40°47' W 073°55'3 6.2
2018-Jan-23 06:00N 40°45' W 073°58'3 5.5
2018-Jan-23 05:31N 40°42' W 073°59'3 5.6
2018-Jan-23 05:00N 40°41' W 074°02'3 5.0
2018-Jan-23 04:29N 40°38' W 074°03'3 7.1
2018-Jan-23 04:01N 40°35' W 074°02'4 7.4
2018-Jan-23 03:30N 40°31' W 074°00'4 8.0
2018-Jan-23 03:00N 40°30' W 073°55'4 7.9
2018-Jan-23 02:31N 40°27' W 073°52'3 6.6
2018-Jan-23 02:00N 40°25' W 073°48'362 8.6
2018-Jan-21 07:54N 34°36' W 075°52'410.4
2018-Jan-21 07:29N 34°34' W 075°56'510.4
2018-Jan-21 07:00N 34°30' W 076°01'610.3
2018-Jan-21 06:22N 34°26' W 076°06'410.4
2018-Jan-21 06:00N 34°23' W 076°09'510.3
2018-Jan-21 05:31N 34°19' W 076°13'510.1
2018-Jan-21 05:00N 34°15' W 076°18'1910.4
2018-Jan-21 03:09N 34°02' W 076°35'210.6
2018-Jan-21 03:01N 34°01' W 076°36'510.6
2018-Jan-21 02:31N 33°58' W 076°41'510.5
2018-Jan-21 01:59N 33°54' W 076°46'43710.4
2018-Jan-19 07:59N 27°08' W 079°53'5 9.5
2018-Jan-19 07:26N 27°02' W 079°53'4 9.3
2018-Jan-19 07:00N 26°58' W 079°54'5 9.2
2018-Jan-19 06:30N 26°54' W 079°55'5 9.2
2018-Jan-19 06:00N 26°49' W 079°55'26 9.1
2018-Jan-19 03:12N 26°24' W 079°55'2 9.1
2018-Jan-19 02:59N 26°22' W 079°55'4 9.0
2018-Jan-19 02:30N 26°17' W 079°56'5 9.8
2018-Jan-19 02:00N 26°13' W 079°56'5 9.2
2018-Jan-19 01:30N 26°08' W 079°56'4 8.8
2018-Jan-19 01:00N 26°04' W 079°56'5 9.0
2018-Jan-19 00:30N 25°59' W 079°57'4 8.8
2018-Jan-19 00:00N 25°55' W 079°57'4 8.7
2018-Jan-18 23:30N 25°50' W 079°57'4 8.7
2018-Jan-18 23:00N 25°46' W 079°58'4 8.8
2018-Jan-18 22:30N 25°42' W 079°58'4 8.8
2018-Jan-18 22:00N 25°37' W 079°58'5 9.1
2018-Jan-18 21:30N 25°33' W 079°57'4 7.3
2018-Jan-18 20:59N 25°29' W 079°57'3 6.9
2018-Jan-18 20:30N 25°26' W 079°58'7610.0
2018-Jan-18 12:52N 24°28' W 080°53'410.2
2018-Jan-18 12:30N 24°26' W 080°57'  
Track history (hours):
 
Tides and Currents Weather Stations Pressure Air Temp Water Temp Dewpoint Dewpoint Depression Visibility Wind Speed Wind Dir Waves Ship Positions

Osg Courageous

Owner: OSG Ship Management, Inc, Tampa, FL. More information available from US FCC via Universal Licensing System and Coast Guard Vessel Documentation Center.

Last reported at 2018-Jan-23 08:05 UTC. Time now 2018-Jan-23 23:57 UTC.
Position N 40°48' W 073°54'.

Length 187 m; draft 11 m.

Type: Tanker. MMSI: 367481310.

Date/timePositionNaut miles runAvg speedWind from/ knotsBaromVisibWave heightAir tempDewpointWater temp
2018-Jan-23 08:05N 40°48' W 073°54'0 0.0
2018-Jan-23 07:58N 40°48' W 073°54'0 0.0
2018-Jan-23 07:31N 40°48' W 073°54'0 0.0
2018-Jan-23 07:00N 40°48' W 073°54'1 2.2
2018-Jan-23 06:30N 40°47' W 073°55'3 6.2
2018-Jan-23 06:00N 40°45' W 073°58'3 5.5
2018-Jan-23 05:31N 40°42' W 073°59'3 5.6
2018-Jan-23 05:00N 40°41' W 074°02'3 5.0
2018-Jan-23 04:29N 40°38' W 074°03'3 7.1
2018-Jan-23 04:01N 40°35' W 074°02'4 7.4
2018-Jan-23 03:30N 40°31' W 074°00'4 8.0
2018-Jan-23 03:00N 40°30' W 073°55'4 7.9
2018-Jan-23 02:31N 40°27' W 073°52'3 6.6
2018-Jan-23 02:00N 40°25' W 073°48'362 8.6
2018-Jan-21 07:54N 34°36' W 075°52'410.4
2018-Jan-21 07:29N 34°34' W 075°56'510.4
2018-Jan-21 07:00N 34°30' W 076°01'610.3
2018-Jan-21 06:22N 34°26' W 076°06'410.4
2018-Jan-21 06:00N 34°23' W 076°09'510.3
2018-Jan-21 05:31N 34°19' W 076°13'510.1
2018-Jan-21 05:00N 34°15' W 076°18'1910.4
2018-Jan-21 03:09N 34°02' W 076°35'210.6
2018-Jan-21 03:01N 34°01' W 076°36'510.6
2018-Jan-21 02:31N 33°58' W 076°41'510.5
2018-Jan-21 01:59N 33°54' W 076°46'43710.4
2018-Jan-19 07:59N 27°08' W 079°53'5 9.5
2018-Jan-19 07:26N 27°02' W 079°53'4 9.3
2018-Jan-19 07:00N 26°58' W 079°54'5 9.2
2018-Jan-19 06:30N 26°54' W 079°55'5 9.2
2018-Jan-19 06:00N 26°49' W 079°55'26 9.1
2018-Jan-19 03:12N 26°24' W 079°55'2 9.1
2018-Jan-19 02:59N 26°22' W 079°55'4 9.0
2018-Jan-19 02:30N 26°17' W 079°56'5 9.8
2018-Jan-19 02:00N 26°13' W 079°56'5 9.2
2018-Jan-19 01:30N 26°08' W 079°56'4 8.8
2018-Jan-19 01:00N 26°04' W 079°56'5 9.0
2018-Jan-19 00:30N 25°59' W 079°57'4 8.8
2018-Jan-19 00:00N 25°55' W 079°57'4 8.7
2018-Jan-18 23:30N 25°50' W 079°57'4 8.7
2018-Jan-18 23:00N 25°46' W 079°58'4 8.8
2018-Jan-18 22:30N 25°42' W 079°58'4 8.8
2018-Jan-18 22:00N 25°37' W 079°58'5 9.1
2018-Jan-18 21:30N 25°33' W 079°57'4 7.3
2018-Jan-18 20:59N 25°29' W 079°57'3 6.9
2018-Jan-18 20:30N 25°26' W 079°58'7610.0
2018-Jan-18 12:52N 24°28' W 080°53'410.2
2018-Jan-18 12:30N 24°26' W 080°57'  

Dump ship's entire track history